Time;durP1;ratioP1;P1;durP2;ratioP2;P2;SDS_P1;SDS_P2;PMS_P1;PMS_P2;Temp;Humidity;BMP_temperature;BMP_pressure;BME280_temperature;BME280_humidity;BME280_pressure;Samples;Min_cycle;Max_cycle;Signal;HPM_P1;HPM_P2
2021/12/07 00:01:05;;;;;;;69.03;34.63;;;2.90;99.90;;;;;;5053892;28;20035;-72
2021/12/07 00:03:30;;;;;;;68.30;32.47;;;2.90;99.90;;;;;;5053075;28;20020;-72
2021/12/07 00:05:57;;;;;;;55.03;29.02;;;2.80;99.90;;;;;;5052966;28;20071;-73
2021/12/07 00:08:22;;;;;;;60.72;31.30;;;2.80;99.90;;;;;;5052944;28;20024;-72
2021/12/07 00:10:50;;;;;;;65.38;31.17;;;2.90;99.90;;;;;;5053244;28;20031;-72
2021/12/07 00:13:16;;;;;;;51.70;26.50;;;2.80;99.90;;;;;;5053161;28;20449;-72
2021/12/07 00:15:42;;;;;;;53.05;27.70;;;2.80;99.90;;;;;;5052913;28;20016;-73
2021/12/07 00:18:08;;;;;;;52.65;27.23;;;2.80;99.90;;;;;;5053601;28;20479;-73
2021/12/07 00:20:34;;;;;;;55.30;28.35;;;2.70;99.90;;;;;;5052833;28;20095;-73
2021/12/07 00:23:04;;;;;;;78.20;37.53;;;2.70;99.90;;;;;;5052794;28;20411;-73
2021/12/07 00:25:30;;;;;;;49.88;25.67;;;2.60;99.90;;;;;;5053110;28;20029;-73
2021/12/07 00:27:56;;;;;;;48.45;26.20;;;2.60;99.90;;;;;;5052956;28;20040;-73
2021/12/07 00:30:27;;;;;;;63.13;30.17;;;2.50;99.90;;;;;;5053252;28;20337;-73
2021/12/07 00:33:07;;;;;;;57.42;28.63;;;2.50;99.90;;;;;;5052899;28;20100;-72
2021/12/07 00:35:34;;;;;;;51.13;25.77;;;2.50;99.90;;;;;;5053002;28;20078;-73
2021/12/07 00:38:10;;;;;;;57.08;28.58;;;2.40;99.90;;;;;;5052942;28;20033;-73
2021/12/07 00:40:36;;;;;;;64.55;29.27;;;2.40;99.90;;;;;;5052540;28;20037;-73
2021/12/07 00:43:02;;;;;;;56.53;28.10;;;2.40;99.90;;;;;;5053119;28;20063;-73
2021/12/07 00:45:31;;;;;;;71.43;34.53;;;2.40;99.90;;;;;;5052782;28;20033;-73
2021/12/07 00:47:58;;;;;;;61.28;31.63;;;2.40;99.90;;;;;;5052438;28;20486;-72
2021/12/07 00:50:25;;;;;;;65.05;30.58;;;2.40;99.90;;;;;;5052742;28;20104;-73
2021/12/07 00:52:52;;;;;;;71.78;33.92;;;2.40;99.90;;;;;;5052915;28;20017;-73
2021/12/07 00:55:23;;;;;;;80.43;36.65;;;2.30;99.90;;;;;;5052410;28;20021;-73
2021/12/07 00:57:52;;;;;;;72.32;32.65;;;2.30;99.90;;;;;;5052550;28;20032;-73
2021/12/07 01:00:19;;;;;;;78.25;35.10;;;2.30;99.90;;;;;;5052744;28;20029;-73
2021/12/07 01:02:45;;;;;;;91.68;41.97;;;2.20;99.90;;;;;;5052871;28;20017;-72
2021/12/07 01:05:21;;;;;;;107.18;49.97;;;2.20;99.90;;;;;;5053190;28;20371;-72
2021/12/07 01:26:41;;;;;;;74.38;31.40;;;2.00;99.90;;;;;;5056136;28;20379;-71
2021/12/07 01:29:07;;;;;;;70.47;31.42;;;1.90;99.90;;;;;;5056161;28;20029;-71
2021/12/07 01:31:50;;;;;;;77.97;35.85;;;1.90;99.90;;;;;;5056169;28;20025;-71
2021/12/07 01:34:41;;;;;;;74.53;35.30;;;1.80;99.90;;;;;;5056108;28;20041;-71
2021/12/07 01:50:15;;;;;;;76.43;36.35;;;1.70;99.90;;;;;;5056431;28;20024;-72
2021/12/07 02:00:23;;;;;;;97.90;41.97;;;1.60;99.90;;;;;;5056654;28;20028;-72
2021/12/07 02:02:49;;;;;;;93.20;41.33;;;1.60;99.90;;;;;;5056562;28;20019;-72
2021/12/07 02:05:15;;;;;;;105.63;46.13;;;1.50;99.90;;;;;;5056668;28;20016;-72
2021/12/07 02:07:41;;;;;;;103.32;46.03;;;1.50;99.90;;;;;;5056343;28;20032;-72
2021/12/07 02:10:14;;;;;;;111.18;45.95;;;1.50;99.90;;;;;;5056524;28;20017;-72
2021/12/07 02:12:45;;;;;;;96.75;41.38;;;1.50;99.90;;;;;;5056182;28;20151;-72
2021/12/07 02:15:18;;;;;;;100.13;41.35;;;1.50;99.90;;;;;;5055982;28;20448;-72
2021/12/07 02:17:44;;;;;;;103.65;44.42;;;1.40;99.90;;;;;;5054977;28;20048;-72
2021/12/07 02:20:12;;;;;;;99.57;40.28;;;1.40;99.90;;;;;;5055960;28;20021;-73
2021/12/07 02:22:38;;;;;;;110.60;46.00;;;1.30;99.90;;;;;;5055956;28;20028;-72
2021/12/07 02:25:06;;;;;;;103.88;45.15;;;1.40;99.90;;;;;;5055768;28;20096;-73
2021/12/07 02:27:32;;;;;;;92.90;42.28;;;1.40;99.90;;;;;;5055549;28;20037;-73
2021/12/07 02:29:59;;;;;;;103.75;44.53;;;1.40;99.90;;;;;;5056103;28;20070;-73
2021/12/07 02:32:25;;;;;;;87.35;35.58;;;1.30;99.90;;;;;;5055807;28;20049;-73
2021/12/07 02:34:57;;;;;;;97.22;39.10;;;1.30;99.90;;;;;;5056002;28;20017;-73
2021/12/07 02:37:25;;;;;;;91.70;38.05;;;1.30;99.90;;;;;;5055727;28;20025;-73
2021/12/07 02:39:51;;;;;;;96.30;37.85;;;1.30;99.90;;;;;;5055261;28;20071;-74
2021/12/07 02:42:18;;;;;;;94.63;37.58;;;1.30;99.90;;;;;;5055076;28;20049;-73
2021/12/07 02:44:44;;;;;;;92.40;37.38;;;1.20;99.90;;;;;;5055595;28;20095;-73
2021/12/07 02:47:10;;;;;;;114.82;44.40;;;1.20;99.90;;;;;;5055767;28;20033;-73
2021/12/07 02:49:35;;;;;;;119.30;46.90;;;1.20;99.90;;;;;;5055340;28;20367;-74
2021/12/07 02:52:03;;;;;;;109.10;41.78;;;1.20;99.90;;;;;;5056150;28;20052;-74
2021/12/07 02:54:31;;;;;;;107.35;41.95;;;1.20;99.90;;;;;;5055231;28;20438;-74
2021/12/07 02:56:56;;;;;;;115.30;45.10;;;1.20;99.90;;;;;;5055650;28;20459;-74
2021/12/07 02:59:23;;;;;;;131.55;52.25;;;1.20;99.90;;;;;;5055570;28;20092;-74
2021/12/07 03:02:02;;;;;;;120.07;44.08;;;1.20;99.90;;;;;;5055549;28;20444;-74
2021/12/07 03:04:39;;;;;;;124.75;42.05;;;1.20;99.90;;;;;;5055123;28;20510;-73
2021/12/07 03:28:19;;;;;;;117.03;42.80;;;1.20;99.90;;;;;;5054653;28;20033;-74
2021/12/07 03:30:45;;;;;;;118.75;44.22;;;1.10;99.90;;;;;;5054975;28;20020;-74
2021/12/07 03:33:12;;;;;;;113.47;42.38;;;1.10;99.90;;;;;;5054417;28;20036;-74
2021/12/07 03:35:38;;;;;;;97.68;37.65;;;1.10;99.90;;;;;;5054409;28;20021;-74
2021/12/07 03:38:06;;;;;;;120.90;44.67;;;1.10;99.90;;;;;;5054541;28;20353;-74
2021/12/07 03:40:33;;;;;;;110.55;41.17;;;1.10;99.90;;;;;;5054756;28;20341;-74
2021/12/07 03:43:00;;;;;;;98.63;38.63;;;1.10;99.90;;;;;;5053983;28;20071;-74
2021/12/07 03:45:26;;;;;;;109.15;39.75;;;1.10;99.90;;;;;;5054086;28;20359;-74
2021/12/07 03:47:53;;;;;;;92.88;37.85;;;1.10;99.90;;;;;;5054548;28;20033;-74
2021/12/07 03:50:21;;;;;;;108.82;41.70;;;1.10;99.90;;;;;;5054395;28;20444;-74
2021/12/07 03:52:51;;;;;;;120.40;43.72;;;1.10;99.90;;;;;;5054214;28;20519;-75
2021/12/07 03:55:16;;;;;;;114.40;38.40;;;1.10;99.90;;;;;;5054364;28;20543;-74
2021/12/07 03:57:42;;;;;;;103.35;40.25;;;1.10;99.90;;;;;;5054062;28;20112;-75
2021/12/07 04:00:12;;;;;;;99.32;38.30;;;1.20;99.90;;;;;;5054319;28;20103;-74
2021/12/07 04:02:40;;;;;;;98.30;37.20;;;1.10;99.90;;;;;;5054094;28;20108;-74
2021/12/07 04:05:14;;;;;;;95.65;38.00;;;1.10;99.90;;;;;;5054275;28;20013;-75
2021/12/07 04:07:40;;;;;;;107.15;40.58;;;1.10;99.90;;;;;;5054089;28;20503;-75
2021/12/07 04:10:08;;;;;;;109.25;37.80;;;1.10;99.90;;;;;;5053893;28;20021;-75
2021/12/07 04:12:34;;;;;;;115.38;41.72;;;1.10;99.90;;;;;;5054075;28;20028;-75
2021/12/07 04:15:01;;;;;;;113.43;42.95;;;1.10;99.90;;;;;;5053961;28;20049;-75
2021/12/07 04:17:27;;;;;;;101.30;40.08;;;1.10;99.90;;;;;;5053768;28;20029;-75
2021/12/07 04:19:53;;;;;;;107.95;40.40;;;1.20;99.90;;;;;;5053833;28;20021;-76
2021/12/07 04:22:18;;;;;;;116.00;43.00;;;1.10;99.90;;;;;;5052526;28;20028;-75
2021/12/07 04:24:44;;;;;;;101.68;37.75;;;1.20;99.90;;;;;;5053505;28;20471;-75
2021/12/07 04:27:10;;;;;;;107.85;41.45;;;1.20;99.90;;;;;;5053743;28;20082;-75
2021/12/07 04:29:36;;;;;;;111.55;43.95;;;1.10;99.90;;;;;;5053648;28;20024;-75
2021/12/07 04:32:02;;;;;;;111.50;42.15;;;1.10;99.90;;;;;;5053213;28;20032;-74
2021/12/07 04:34:28;;;;;;;113.57;42.53;;;1.20;99.90;;;;;;5053639;28;20077;-74
2021/12/07 04:36:54;;;;;;;101.38;38.15;;;1.20;99.90;;;;;;5054214;28;20025;-74
2021/12/07 04:39:19;;;;;;;90.45;36.70;;;1.20;99.90;;;;;;5053440;28;20440;-74
2021/12/07 04:41:48;;;;;;;97.68;38.33;;;1.20;99.90;;;;;;5053451;28;20045;-74
2021/12/07 04:44:13;;;;;;;102.40;37.78;;;1.20;99.90;;;;;;5054059;28;20027;-74
2021/12/07 04:46:50;;;;;;;96.00;40.25;;;1.30;99.90;;;;;;5053298;28;20092;-74
2021/12/07 04:49:51;;;;;;;104.93;42.97;;;1.20;99.90;;;;;;5053547;28;20033;-74
2021/12/07 04:57:47;;;;;;;109.95;42.40;;;1.20;99.90;;;;;;5053489;28;20032;-74
2021/12/07 05:00:24;;;;;;;107.60;41.85;;;1.20;99.90;;;;;;5052909;28;20029;-76
2021/12/07 05:02:58;;;;;;;119.07;45.58;;;1.20;99.90;;;;;;5033347;28;20107;-76
2021/12/07 05:05:30;;;;;;;117.88;45.08;;;1.20;99.90;;;;;;5034418;28;20163;-75
2021/12/07 05:07:59;;;;;;;107.53;43.28;;;1.20;99.90;;;;;;5052099;28;20025;-75
2021/12/07 05:10:36;;;;;;;113.85;45.92;;;1.20;99.90;;;;;;5053153;28;20017;-75
2021/12/07 05:34:46;;;;;;;134.48;54.40;;;1.10;99.90;;;;;;5053012;28;20450;-75
2021/12/07 05:39:58;;;;;;;127.13;50.33;;;1.10;99.90;;;;;;5053044;28;20044;-75
2021/12/07 05:42:24;;;;;;;137.85;53.30;;;1.00;99.90;;;;;;5052452;28;20037;-75
2021/12/07 05:44:54;;;;;;;152.68;57.78;;;1.10;99.90;;;;;;5052879;28;20426;-75
2021/12/07 05:47:21;;;;;;;160.45;57.38;;;1.10;99.90;;;;;;5052301;28;20033;-76
2021/12/07 05:49:46;;;;;;;148.32;56.13;;;1.10;99.90;;;;;;5052326;28;20090;-76
2021/12/07 05:52:12;;;;;;;135.70;50.67;;;1.10;99.90;;;;;;5053311;28;20436;-76
2021/12/07 05:54:38;;;;;;;115.18;46.75;;;1.10;99.90;;;;;;5056399;28;20021;-76
2021/12/07 05:57:05;;;;;;;141.95;56.28;;;1.10;99.90;;;;;;5055981;28;20478;-76
2021/12/07 05:59:31;;;;;;;137.13;59.15;;;1.10;99.90;;;;;;5056669;28;20029;-76
2021/12/07 06:01:57;;;;;;;135.95;53.50;;;1.10;99.90;;;;;;5056864;28;20053;-76
2021/12/07 06:04:23;;;;;;;140.20;54.67;;;1.10;99.90;;;;;;5056810;28;20056;-76
2021/12/07 06:06:48;;;;;;;134.70;56.53;;;1.10;99.90;;;;;;5056552;28;20025;-76
2021/12/07 06:09:14;;;;;;;143.07;59.15;;;1.20;99.90;;;;;;5056779;28;20029;-76
2021/12/07 06:11:42;;;;;;;135.23;55.63;;;1.10;99.90;;;;;;5056592;28;20063;-75
2021/12/07 06:14:11;;;;;;;154.02;62.05;;;1.10;99.90;;;;;;5056487;28;20032;-75
2021/12/07 06:16:37;;;;;;;143.30;57.40;;;1.10;99.90;;;;;;5055345;28;20032;-75
2021/12/07 06:19:02;;;;;;;138.48;57.20;;;1.10;99.90;;;;;;5054722;28;20021;-76
2021/12/07 06:21:29;;;;;;;144.80;58.83;;;1.20;99.90;;;;;;5054944;28;20036;-76
2021/12/07 06:23:55;;;;;;;127.88;51.83;;;1.10;99.90;;;;;;5055153;28;20360;-76
2021/12/07 06:26:21;;;;;;;110.00;43.50;;;1.20;99.90;;;;;;5056208;28;20075;-75
2021/12/07 06:28:47;;;;;;;133.88;51.40;;;1.10;99.90;;;;;;5054986;28;20423;-75
2021/12/07 06:31:13;;;;;;;139.18;58.22;;;1.10;99.90;;;;;;5055618;28;20053;-76
2021/12/07 06:33:38;;;;;;;188.93;79.40;;;1.10;99.90;;;;;;5055560;28;20096;-76
2021/12/07 06:36:06;;;;;;;215.63;87.10;;;1.10;99.90;;;;;;5055840;28;20024;-75
2021/12/07 06:38:33;;;;;;;173.27;70.88;;;1.00;99.90;;;;;;5055891;28;20021;-75
2021/12/07 06:41:01;;;;;;;167.27;66.40;;;1.10;99.90;;;;;;5055625;28;20426;-75
2021/12/07 06:43:27;;;;;;;151.02;64.53;;;1.00;99.90;;;;;;5056073;28;20052;-75
2021/12/07 06:45:53;;;;;;;196.23;81.03;;;1.10;99.90;;;;;;5055513;28;20108;-76
2021/12/07 06:48:19;;;;;;;197.18;84.18;;;1.10;99.90;;;;;;5055530;28;20100;-76
2021/12/07 06:50:46;;;;;;;224.73;93.43;;;1.00;99.90;;;;;;5055422;28;20025;-76
2021/12/07 06:53:12;;;;;;;196.68;80.60;;;1.10;99.90;;;;;;5055894;28;20025;-75
2021/12/07 06:55:38;;;;;;;193.27;74.85;;;1.10;99.90;;;;;;5055453;28;20108;-75
2021/12/07 06:58:04;;;;;;;173.80;74.40;;;1.10;99.90;;;;;;5055295;28;20030;-75
2021/12/07 07:00:31;;;;;;;139.57;54.00;;;1.00;99.90;;;;;;5055741;28;20044;-75
2021/12/07 07:02:57;;;;;;;143.05;55.65;;;1.00;99.90;;;;;;5054902;28;20483;-75
2021/12/07 07:05:23;;;;;;;139.02;56.83;;;1.00;99.90;;;;;;5055157;28;20017;-75
2021/12/07 07:07:49;;;;;;;152.40;59.47;;;1.00;99.90;;;;;;5055810;28;20513;-75
2021/12/07 07:10:18;;;;;;;147.98;58.58;;;1.00;99.90;;;;;;5055745;28;20052;-75
2021/12/07 07:12:45;;;;;;;128.82;52.55;;;1.00;99.90;;;;;;5055350;28;20017;-75
2021/12/07 07:15:11;;;;;;;158.57;63.30;;;0.90;99.90;;;;;;5055505;28;20028;-75
2021/12/07 07:17:37;;;;;;;158.80;62.58;;;1.00;99.90;;;;;;5055393;28;20077;-75
2021/12/07 07:20:08;;;;;;;161.13;67.88;;;1.00;99.90;;;;;;5054950;28;20088;-75
2021/12/07 07:22:33;;;;;;;153.55;61.33;;;1.00;99.90;;;;;;5055408;28;20021;-75
2021/12/07 07:24:59;;;;;;;173.45;75.28;;;0.90;99.90;;;;;;5053972;28;20359;-75
2021/12/07 07:27:25;;;;;;;195.40;84.57;;;1.00;99.90;;;;;;5054705;28;20033;-75
2021/12/07 07:29:51;;;;;;;167.20;68.18;;;1.00;99.90;;;;;;5055281;28;20028;-75
2021/12/07 07:32:17;;;;;;;164.00;65.78;;;1.00;99.90;;;;;;5054863;28;20032;-75
2021/12/07 07:34:43;;;;;;;168.00;71.82;;;1.00;99.90;;;;;;5054617;28;20414;-75
2021/12/07 07:37:09;;;;;;;149.60;62.33;;;1.00;99.90;;;;;;5054953;28;20104;-75
2021/12/07 07:39:35;;;;;;;155.07;61.25;;;1.00;99.90;;;;;;5054695;28;20021;-75
2021/12/07 07:42:01;;;;;;;146.32;61.92;;;1.00;99.90;;;;;;5054725;28;20128;-75
2021/12/07 07:44:27;;;;;;;160.32;64.95;;;1.00;99.90;;;;;;5054545;28;20403;-75
2021/12/07 07:46:52;;;;;;;150.77;60.40;;;1.10;99.90;;;;;;5054675;28;20436;-73
2021/12/07 07:49:18;;;;;;;145.23;61.15;;;1.00;99.90;;;;;;5055106;28;20028;-74
2021/12/07 07:51:44;;;;;;;156.50;64.60;;;1.00;99.90;;;;;;5054655;28;20035;-74
2021/12/07 07:54:10;;;;;;;132.23;56.58;;;1.00;99.90;;;;;;5054506;28;20025;-74
2021/12/07 07:56:36;;;;;;;149.13;60.75;;;1.00;99.90;;;;;;5054430;28;20029;-74
2021/12/07 07:59:04;;;;;;;135.50;54.80;;;1.00;99.90;;;;;;5054253;28;20036;-74
2021/12/07 08:01:31;;;;;;;153.35;64.25;;;1.00;99.90;;;;;;5054097;28;20032;-74
2021/12/07 08:03:58;;;;;;;154.48;61.25;;;1.00;99.90;;;;;;5054520;28;20024;-74
2021/12/07 08:06:24;;;;;;;135.98;57.28;;;1.00;99.90;;;;;;5054346;28;20025;-74
2021/12/07 08:08:50;;;;;;;149.05;59.92;;;1.00;99.90;;;;;;5054007;28;20039;-74
2021/12/07 08:11:16;;;;;;;159.98;66.07;;;1.00;99.90;;;;;;5054392;28;20044;-74
2021/12/07 08:13:42;;;;;;;214.32;81.47;;;1.00;99.90;;;;;;5054222;28;20028;-74
2021/12/07 08:16:15;;;;;;;169.60;69.32;;;1.00;99.90;;;;;;5053040;28;20067;-74
2021/12/07 08:18:50;;;;;;;199.60;79.43;;;1.10;99.90;;;;;;5053866;28;20052;-75
2021/12/07 08:21:17;;;;;;;178.30;78.07;;;1.10;99.90;;;;;;5053928;28;20025;-75
2021/12/07 08:23:44;;;;;;;191.98;84.15;;;1.10;99.90;;;;;;5053992;28;20399;-75
2021/12/07 08:26:13;;;;;;;207.05;97.90;;;1.10;99.90;;;;;;5054020;28;20066;-75
2021/12/07 08:28:39;;;;;;;223.27;98.43;;;1.10;99.90;;;;;;5053754;28;20459;-75
2021/12/07 08:31:05;;;;;;;185.07;78.68;;;1.10;99.90;;;;;;5054035;28;20105;-76
2021/12/07 08:33:32;;;;;;;156.77;61.20;;;1.20;99.90;;;;;;5053577;28;20452;-76
2021/12/07 08:35:59;;;;;;;171.88;70.40;;;1.20;99.90;;;;;;5054233;28;20071;-75
2021/12/07 08:38:26;;;;;;;165.07;65.70;;;1.20;99.90;;;;;;5053947;28;20054;-76
2021/12/07 08:40:55;;;;;;;150.20;65.25;;;1.20;99.90;;;;;;5053490;28;20123;-76
2021/12/07 08:43:29;;;;;;;145.48;65.32;;;1.20;99.90;;;;;;5053717;28;20020;-76
2021/12/07 08:45:57;;;;;;;150.68;65.13;;;1.20;99.90;;;;;;5054244;28;20025;-76
2021/12/07 08:48:24;;;;;;;143.38;61.17;;;1.20;99.90;;;;;;5053699;28;20056;-76
2021/12/07 08:50:50;;;;;;;148.63;63.90;;;1.20;99.90;;;;;;5052304;28;20021;-76
2021/12/07 08:53:19;;;;;;;161.80;70.93;;;1.20;99.90;;;;;;5053756;28;20076;-76
2021/12/07 09:01:19;;;;;;;194.15;73.95;;;1.20;99.90;;;;;;5053683;28;20040;-76
2021/12/07 09:03:47;;;;;;;406.02;150.60;;;1.20;99.90;;;;;;5052996;28;20025;-76
2021/12/07 09:06:13;;;;;;;486.80;247.13;;;1.20;99.90;;;;;;5053305;28;20025;-76
2021/12/07 09:08:40;;;;;;;296.98;138.65;;;1.20;99.90;;;;;;5052168;28;20509;-76
2021/12/07 09:11:07;;;;;;;251.40;119.75;;;1.20;99.90;;;;;;5053089;28;20025;-76
2021/12/07 09:13:34;;;;;;;411.83;251.50;;;1.20;99.90;;;;;;5053599;28;20075;-76
2021/12/07 09:16:01;;;;;;;261.20;124.68;;;1.20;99.90;;;;;;5053492;28;20013;-76
2021/12/07 09:18:27;;;;;;;292.55;158.45;;;1.20;99.90;;;;;;5053619;28;20025;-76
2021/12/07 09:20:54;;;;;;;294.35;144.48;;;1.20;99.90;;;;;;5053662;28;20044;-76
2021/12/07 09:23:20;;;;;;;230.07;111.88;;;1.20;99.90;;;;;;5053442;28;20444;-76
2021/12/07 09:25:46;;;;;;;178.05;85.78;;;1.20;99.90;;;;;;5053152;28;20367;-77
2021/12/07 09:28:12;;;;;;;138.13;66.32;;;1.20;99.90;;;;;;5057296;28;20033;-77
2021/12/07 09:30:39;;;;;;;130.50;60.30;;;1.20;99.90;;;;;;5057111;28;20021;-77
2021/12/07 09:33:05;;;;;;;128.00;60.92;;;1.10;99.90;;;;;;5056910;28;20021;-76
2021/12/07 09:35:33;;;;;;;122.60;55.15;;;1.20;99.90;;;;;;5056965;28;20017;-76
2021/12/07 09:38:00;;;;;;;117.95;52.40;;;1.20;99.90;;;;;;5056992;28;20021;-76
2021/12/07 09:40:28;;;;;;;134.60;60.45;;;1.20;99.90;;;;;;5056923;28;20028;-76
2021/12/07 09:42:55;;;;;;;147.35;64.05;;;1.20;99.90;;;;;;5057168;28;20017;-76
2021/12/07 09:45:23;;;;;;;146.10;70.25;;;1.30;99.90;;;;;;5057177;28;20028;-76
2021/12/07 09:47:49;;;;;;;153.23;66.85;;;1.20;99.90;;;;;;5056813;28;20029;-76
2021/12/07 09:50:19;;;;;;;148.05;64.00;;;1.30;99.90;;;;;;5056707;28;20032;-76
2021/12/07 09:52:46;;;;;;;153.55;67.20;;;1.30;99.90;;;;;;5056823;28;20048;-76
2021/12/07 09:55:12;;;;;;;140.18;54.70;;;1.30;99.90;;;;;;5057176;28;20100;-76
2021/12/07 09:57:39;;;;;;;143.00;56.90;;;1.20;99.90;;;;;;5056701;28;20100;-76
2021/12/07 10:00:08;;;;;;;130.82;55.60;;;1.30;99.90;;;;;;5056726;28;20013;-76
2021/12/07 10:02:34;;;;;;;146.80;60.30;;;1.20;99.90;;;;;;5057094;28;20041;-76
2021/12/07 10:05:00;;;;;;;126.93;53.60;;;1.20;99.90;;;;;;5056449;28;20029;-76
2021/12/07 10:07:26;;;;;;;118.13;53.42;;;1.20;99.90;;;;;;5056145;28;20461;-76
2021/12/07 10:09:52;;;;;;;112.68;51.20;;;1.30;99.90;;;;;;5056688;28;20056;-76
2021/12/07 10:12:22;;;;;;;113.53;53.47;;;1.20;99.90;;;;;;5056322;28;20025;-76
2021/12/07 10:14:48;;;;;;;134.60;61.00;;;1.30;99.90;;;;;;5056418;28;20020;-77
2021/12/07 10:17:19;;;;;;;131.82;61.25;;;1.30;99.90;;;;;;5056197;28;20123;-76
2021/12/07 10:19:45;;;;;;;127.65;57.75;;;1.30;99.90;;;;;;5056630;28;20017;-76
2021/12/07 10:22:19;;;;;;;127.30;58.75;;;1.30;99.90;;;;;;5055966;28;20426;-76
2021/12/07 10:24:53;;;;;;;143.43;63.45;;;1.40;99.90;;;;;;5056412;28;20017;-76
2021/12/07 10:27:35;;;;;;;155.18;73.18;;;1.40;99.90;;;;;;5056131;28;20029;-75
2021/12/07 10:30:07;;;;;;;142.13;67.70;;;1.40;99.90;;;;;;5056120;28;20104;-75
2021/12/07 10:32:37;;;;;;;166.18;79.82;;;1.50;99.90;;;;;;5055916;28;20024;-75
2021/12/07 10:35:03;;;;;;;128.48;59.33;;;1.40;99.90;;;;;;5056031;28;20048;-74
2021/12/07 10:37:30;;;;;;;213.80;101.95;;;1.40;99.90;;;;;;5055542;28;20067;-75
2021/12/07 10:39:56;;;;;;;210.60;92.65;;;1.50;99.90;;;;;;5055737;28;20044;-75
2021/12/07 10:42:25;;;;;;;187.48;90.95;;;1.40;99.90;;;;;;5056123;28;20108;-74
2021/12/07 10:44:52;;;;;;;197.02;96.20;;;1.50;99.90;;;;;;5056147;28;20028;-75
2021/12/07 10:47:23;;;;;;;166.68;79.38;;;1.50;99.90;;;;;;5055821;28;20036;-75
2021/12/07 10:49:53;;;;;;;201.85;91.28;;;1.50;99.90;;;;;;5055571;28;20024;-74
2021/12/07 10:52:26;;;;;;;140.13;63.42;;;1.50;99.90;;;;;;5055800;28;20040;-74
2021/12/07 10:55:13;;;;;;;245.82;102.82;;;1.50;99.90;;;;;;5055900;28;20021;-74
2021/12/07 10:57:41;;;;;;;192.82;87.45;;;1.50;99.90;;;;;;5055305;28;20021;-74
2021/12/07 11:00:33;;;;;;;168.35;74.82;;;1.60;99.90;;;;;;5055423;28;20029;-74
2021/12/07 11:03:05;;;;;;;216.98;93.35;;;1.60;99.90;;;;;;5055393;28;20052;-74
2021/12/07 11:05:34;;;;;;;227.48;97.30;;;1.60;99.90;;;;;;5055420;28;20111;-74
2021/12/07 11:08:01;;;;;;;246.63;110.40;;;1.70;99.90;;;;;;5055227;28;20440;-73
2021/12/07 11:10:33;;;;;;;263.88;113.88;;;1.70;99.90;;;;;;5055318;28;20029;-74
2021/12/07 11:13:18;;;;;;;139.18;65.18;;;1.80;99.90;;;;;;5055743;28;20023;-73
2021/12/07 11:15:56;;;;;;;186.20;80.85;;;1.80;99.90;;;;;;5054024;28;20024;-73
2021/12/07 11:18:27;;;;;;;211.63;93.10;;;1.80;99.90;;;;;;5054451;28;20387;-73
2021/12/07 11:20:55;;;;;;;151.85;63.80;;;1.90;99.90;;;;;;5054104;28;20103;-73
2021/12/07 11:23:31;;;;;;;208.65;91.78;;;1.90;99.90;;;;;;5054686;28;20021;-73
2021/12/07 11:31:36;;;;;;;140.18;63.92;;;2.10;99.90;;;;;;5054187;28;20048;-73
2021/12/07 11:34:08;;;;;;;142.60;68.05;;;2.10;99.90;;;;;;5054324;28;20017;-73
2021/12/07 11:36:38;;;;;;;108.03;57.22;;;2.20;99.90;;;;;;5054208;28;20397;-72
2021/12/07 11:39:18;;;;;;;101.03;50.38;;;2.20;99.90;;;;;;5053741;28;20028;-72
2021/12/07 11:41:48;;;;;;;111.40;57.60;;;2.20;99.90;;;;;;5054219;28;20459;-72
2021/12/07 11:44:14;;;;;;;97.07;49.65;;;2.20;99.90;;;;;;5054114;28;20021;-72
2021/12/07 11:46:47;;;;;;;117.60;59.88;;;2.20;99.90;;;;;;5053960;28;20025;-72
2021/12/07 11:49:19;;;;;;;132.35;62.75;;;2.30;99.90;;;;;;5054105;28;20474;-72
2021/12/07 11:51:48;;;;;;;124.47;63.35;;;2.30;99.90;;;;;;5053786;28;20045;-72
2021/12/07 11:54:16;;;;;;;109.85;53.97;;;2.30;99.90;;;;;;5054071;28;20024;-72
2021/12/07 11:56:43;;;;;;;113.00;55.95;;;2.40;99.90;;;;;;5053721;28;20025;-72
2021/12/07 11:59:10;;;;;;;117.25;60.90;;;2.40;99.90;;;;;;5053653;28;20060;-72
2021/12/07 12:01:37;;;;;;;110.70;54.83;;;2.40;99.90;;;;;;5053933;28;20021;-72
2021/12/07 12:04:03;;;;;;;117.97;64.22;;;2.50;99.90;;;;;;5053399;28;20094;-72
2021/12/07 12:06:30;;;;;;;109.93;55.22;;;2.50;99.90;;;;;;5053704;28;20104;-72
2021/12/07 12:08:57;;;;;;;100.95;51.40;;;2.50;99.90;;;;;;5053593;28;20108;-72
2021/12/07 12:11:58;;;;;;;98.85;47.00;;;2.60;99.90;;;;;;5053255;28;20537;-72
2021/12/07 12:14:59;;;;;;;79.97;43.00;;;2.60;99.90;;;;;;5053347;28;20017;-73
2021/12/07 12:18:02;;;;;;;83.88;39.58;;;2.60;99.90;;;;;;5053433;28;20028;-73
2021/12/07 12:20:47;;;;;;;88.50;41.97;;;2.60;99.90;;;;;;5049625;28;20486;-73
2021/12/07 12:23:50;;;;;;;103.57;49.20;;;2.60;99.90;;;;;;5053528;28;20024;-73
2021/12/07 12:26:24;;;;;;;92.70;44.08;;;2.70;99.90;;;;;;5053720;28;20029;-73
2021/12/07 12:28:51;;;;;;;91.55;45.28;;;2.60;99.90;;;;;;5053132;28;20067;-73
2021/12/07 12:31:19;;;;;;;130.98;60.20;;;2.70;99.90;;;;;;5053371;28;20021;-73
2021/12/07 12:33:52;;;;;;;95.20;44.88;;;2.70;99.90;;;;;;5053476;28;20020;-72
2021/12/07 12:36:20;;;;;;;90.53;43.13;;;2.60;99.90;;;;;;5053553;28;20024;-73
2021/12/07 12:38:59;;;;;;;102.80;48.47;;;2.70;99.90;;;;;;5053016;28;20032;-73
2021/12/07 12:41:26;;;;;;;86.00;40.03;;;2.70;99.90;;;;;;5052715;28;20183;-73
2021/12/07 12:43:55;;;;;;;78.60;38.63;;;2.80;99.90;;;;;;5053097;28;20119;-73
2021/12/07 12:46:29;;;;;;;77.20;37.80;;;2.70;99.90;;;;;;5052862;28;20104;-73
2021/12/07 12:49:00;;;;;;;80.40;39.35;;;2.70;99.90;;;;;;5052750;28;20025;-70
2021/12/07 12:51:30;;;;;;;78.63;36.97;;;2.70;99.90;;;;;;5052899;28;20109;-71
2021/12/07 12:53:57;;;;;;;80.80;38.63;;;2.70;99.90;;;;;;5052949;28;20071;-71
2021/12/07 12:56:30;;;;;;;82.85;39.75;;;2.70;99.90;;;;;;5052681;28;20028;-71
2021/12/07 12:59:02;;;;;;;86.95;41.00;;;2.80;99.90;;;;;;5052806;28;20025;-71
2021/12/07 13:01:29;;;;;;;80.20;39.40;;;2.70;99.90;;;;;;5052711;28;20043;-70
2021/12/07 13:04:12;;;;;;;114.65;49.25;;;2.80;99.90;;;;;;5052531;28;20021;-71
2021/12/07 13:07:23;;;;;;;100.30;44.45;;;2.80;99.90;;;;;;5052944;28;20025;-71
2021/12/07 13:09:55;;;;;;;97.10;42.85;;;2.80;99.90;;;;;;5052313;28;20082;-71
2021/12/07 13:12:33;;;;;;;93.68;44.92;;;2.80;99.90;;;;;;5053236;28;20024;-70
2021/12/07 13:15:16;;;;;;;127.82;59.55;;;2.80;99.90;;;;;;5052811;28;20027;-70
2021/12/07 13:17:45;;;;;;;89.07;44.03;;;2.80;99.90;;;;;;5052559;28;20021;-70
2021/12/07 13:20:21;;;;;;;81.85;39.42;;;2.80;99.90;;;;;;5052651;28;20023;-70
2021/12/07 13:22:56;;;;;;;81.45;36.92;;;2.80;99.90;;;;;;5052909;28;20040;-73
2021/12/07 13:25:27;;;;;;;79.60;39.42;;;2.70;99.90;;;;;;5052571;28;20444;-73
2021/12/07 13:28:05;;;;;;;82.10;40.40;;;2.80;99.90;;;;;;5052197;28;20029;-73
2021/12/07 13:30:47;;;;;;;77.25;35.80;;;2.80;99.90;;;;;;5052546;28;20064;-73
2021/12/07 13:33:21;;;;;;;97.53;44.88;;;2.80;99.90;;;;;;5052270;28;20021;-73
2021/12/07 13:35:49;;;;;;;99.13;45.85;;;2.80;99.90;;;;;;5052661;28;20029;-71
2021/12/07 13:38:28;;;;;;;95.30;44.95;;;2.80;99.90;;;;;;5052498;28;20032;-71
2021/12/07 13:41:14;;;;;;;81.03;39.03;;;2.80;99.90;;;;;;5052286;28;20111;-71
2021/12/07 13:43:43;;;;;;;86.40;42.38;;;2.80;99.90;;;;;;5048084;28;20037;-71
2021/12/07 13:46:28;;;;;;;74.18;37.05;;;2.80;99.90;;;;;;5052504;28;20023;-70
2021/12/07 13:49:08;;;;;;;83.60;41.30;;;2.70;99.90;;;;;;5052391;28;20041;-70
2021/12/07 13:51:35;;;;;;;78.50;35.15;;;2.70;99.90;;;;;;5052179;28;20025;-70
2021/12/07 13:54:04;;;;;;;82.13;37.95;;;2.70;99.90;;;;;;5051289;28;20017;-70
2021/12/07 13:56:38;;;;;;;87.88;43.92;;;2.70;99.90;;;;;;5052217;28;20103;-73
2021/12/07 13:59:10;;;;;;;87.53;45.30;;;2.70;99.90;;;;;;5052173;28;20025;-73
2021/12/07 14:01:39;;;;;;;80.10;41.78;;;2.60;99.90;;;;;;5052288;28;20021;-70
2021/12/07 14:04:07;;;;;;;75.28;36.00;;;2.60;99.90;;;;;;5052037;28;20021;-70
2021/12/07 14:06:33;;;;;;;76.95;39.03;;;2.60;99.90;;;;;;5052248;28;20017;-72
2021/12/07 14:09:11;;;;;;;85.38;39.38;;;2.60;99.90;;;;;;5052049;28;20397;-72
2021/12/07 14:11:38;;;;;;;71.70;34.00;;;2.60;99.90;;;;;;5052170;28;20024;-73
2021/12/07 14:14:23;;;;;;;75.05;37.13;;;2.60;99.90;;;;;;5054485;28;20024;-72
2021/12/07 14:16:48;;;;;;;79.45;39.63;;;2.60;99.90;;;;;;5055961;28;20462;-72
2021/12/07 14:19:14;;;;;;;80.28;40.08;;;2.60;99.90;;;;;;5055306;28;20025;-73
2021/12/07 14:21:40;;;;;;;113.70;53.13;;;2.60;99.90;;;;;;5055626;28;20078;-72
2021/12/07 14:24:15;;;;;;;96.50;42.25;;;2.70;99.90;;;;;;5055046;28;20021;-73